Terminal Aerodrome Forecast
Issued by NWS

Home | Current Version | Previous Version | Graphics & Text | Print | Product List | Glossary On
Versions: 1 2 3 4 5 6 7 8 9 10 11 12 13 14 15 16 17
000
FTUS43 KBIS 282300
TAFDIK
TAF
KDIK 282321Z 2900/2924 08005KT P6SM FEW080
     FM290200 13005KT P6SM FEW200
     FM291000 19005KT P6SM FEW200
     FM291700 02007KT P6SM FEW070=

USA.gov is the U.S. government's official web portal to all federal, state and local government web resources and services.